createdAt,value
2022-08-03T00:00:17.261Z,3.15
2022-08-03T00:03:04.516Z,3.22
2022-08-03T00:06:03.506Z,2.55
2022-08-03T00:08:52.447Z,2.80
2022-08-03T00:11:40.041Z,2.55
2022-08-03T00:14:28.726Z,2.70
2022-08-03T00:17:16.004Z,2.10
2022-08-03T00:20:03.155Z,2.47
2022-08-03T00:22:50.479Z,2.30
2022-08-03T00:25:37.994Z,2.50
2022-08-03T00:28:25.655Z,2.53
2022-08-03T00:31:23.074Z,2.67
2022-08-03T00:34:36.726Z,2.72
2022-08-03T00:37:40.909Z,2.35
2022-08-03T00:40:29.587Z,2.60
2022-08-03T00:43:16.968Z,2.75
2022-08-03T00:46:04.364Z,2.40
2022-08-03T00:48:53.789Z,2.60
2022-08-03T00:51:41.282Z,2.20
2022-08-03T00:54:29.331Z,2.33
2022-08-03T00:57:16.372Z,2.40
2022-08-03T01:00:03.601Z,2.63
2022-08-03T01:02:52.032Z,2.40
2022-08-03T01:05:54.489Z,2.70
2022-08-03T01:08:52.174Z,2.38
2022-08-03T01:12:01.271Z,2.22
2022-08-03T01:14:58.988Z,2.55
2022-08-03T01:17:57.490Z,2.50
2022-08-03T01:20:51.006Z,2.20
2022-08-03T01:24:02.374Z,2.75
2022-08-03T01:27:05.595Z,2.40
2022-08-03T01:30:02.745Z,1.83
2022-08-03T01:33:03.094Z,2.17
2022-08-03T01:35:58.334Z,2.28
2022-08-03T01:38:51.086Z,2.20
2022-08-03T01:41:46.095Z,2.20
2022-08-03T01:44:38.720Z,2.55
2022-08-03T01:47:29.063Z,2.20
2022-08-03T01:50:20.052Z,2.70
2022-08-03T01:53:08.506Z,2.70
2022-08-03T01:55:57.625Z,2.40
2022-08-03T01:58:51.225Z,2.88
2022-08-03T02:02:25.198Z,2.90
2022-08-03T02:04:50.379Z,2.75
2022-08-03T02:07:39.135Z,2.80
2022-08-03T02:10:35.193Z,2.60
2022-08-03T02:13:25.958Z,2.53
2022-08-03T02:16:15.285Z,2.63
2022-08-03T02:19:06.831Z,2.58
2022-08-03T02:22:01.347Z,2.50
2022-08-03T02:24:50.949Z,2.33
2022-08-03T02:27:50.515Z,2.58
2022-08-03T02:30:40.649Z,2.78
2022-08-03T02:33:32.839Z,2.58
2022-08-03T02:36:25.327Z,2.58
2022-08-03T02:39:22.043Z,2.80
2022-08-03T02:42:12.657Z,2.70
2022-08-03T02:45:04.931Z,2.70
2022-08-03T02:47:57.929Z,2.70
2022-08-03T02:50:47.185Z,2.65
2022-08-03T02:53:36.319Z,2.95
2022-08-03T02:56:27.036Z,2.80
2022-08-03T02:59:15.493Z,2.97
2022-08-03T03:02:04.218Z,2.70
2022-08-03T03:05:51.102Z,2.78
2022-08-03T03:08:02.036Z,2.65
2022-08-03T03:10:53.287Z,2.53
2022-08-03T03:13:46.412Z,2.45
2022-08-03T03:16:35.116Z,2.70
2022-08-03T03:19:23.263Z,3.05
2022-08-03T03:22:10.565Z,2.70
2022-08-03T03:24:58.211Z,2.65
2022-08-03T03:27:49.461Z,2.65
2022-08-03T03:30:39.398Z,2.80
2022-08-03T03:33:28.482Z,2.70
2022-08-03T03:36:16.204Z,2.90
2022-08-03T03:39:15.667Z,2.70
2022-08-03T03:42:04.013Z,2.95
2022-08-03T03:44:51.218Z,2.83
2022-08-03T03:47:40.078Z,2.50
2022-08-03T03:50:27.673Z,2.75
2022-08-03T03:53:16.158Z,3.00
2022-08-03T03:56:03.922Z,2.60
2022-08-03T03:58:51.719Z,2.90
2022-08-03T04:01:40.327Z,2.83
2022-08-03T04:04:46.388Z,3.00
2022-08-03T04:08:07.699Z,3.03
2022-08-03T04:11:06.945Z,2.72
2022-08-03T04:14:01.746Z,3.13
2022-08-03T04:16:54.977Z,3.00
2022-08-03T04:19:52.917Z,2.83
2022-08-03T04:22:42.099Z,2.60
2022-08-03T04:25:34.573Z,2.58
2022-08-03T04:28:30.686Z,2.53
2022-08-03T04:31:22.522Z,2.55
2022-08-03T04:34:09.887Z,2.47
2022-08-03T04:37:03.297Z,2.35
2022-08-03T04:39:51.677Z,2.50
2022-08-03T04:42:41.467Z,2.35
2022-08-03T04:45:30.231Z,2.45
2022-08-03T04:48:20.076Z,2.45
2022-08-03T04:51:07.832Z,2.80
2022-08-03T04:53:56.604Z,2.55
2022-08-03T04:56:44.274Z,2.70
2022-08-03T04:59:31.528Z,2.67
2022-08-03T05:02:19.098Z,2.65
2022-08-03T05:05:07.588Z,2.70
2022-08-03T05:07:54.811Z,2.33
2022-08-03T05:10:44.001Z,2.80
2022-08-03T05:13:31.442Z,2.53
2022-08-03T05:16:18.615Z,2.70
2022-08-03T05:19:05.760Z,2.60
2022-08-03T05:21:54.265Z,2.22
2022-08-03T05:24:41.589Z,2.70
2022-08-03T05:27:30.329Z,2.50
2022-08-03T05:30:30.763Z,2.97
2022-08-03T05:33:21.511Z,2.80
2022-08-03T05:36:08.790Z,2.80
2022-08-03T05:38:58.532Z,2.20
2022-08-03T05:41:49.238Z,2.70
2022-08-03T05:44:38.822Z,2.70
2022-08-03T05:47:26.321Z,2.65
2022-08-03T05:50:13.886Z,2.72
2022-08-03T05:53:00.903Z,2.50
2022-08-03T05:55:52.623Z,2.10
2022-08-03T05:58:41.918Z,2.72
2022-08-03T06:01:32.650Z,2.38
2022-08-03T06:04:19.754Z,2.38
2022-08-03T06:07:07.042Z,2.47
2022-08-03T06:10:33.970Z,2.72
2022-08-03T06:13:02.716Z,2.08
2022-08-03T06:15:50.170Z,2.38
2022-08-03T06:18:41.330Z,2.40
2022-08-03T06:21:28.524Z,2.20
2022-08-03T06:24:16.505Z,2.40
2022-08-03T06:27:03.567Z,2.30
2022-08-03T06:29:50.727Z,2.60
2022-08-03T06:32:38.393Z,2.45
2022-08-03T06:35:28.009Z,2.65
2022-08-03T06:38:15.179Z,3.05
2022-08-03T06:41:02.456Z,2.80
2022-08-03T06:44:03.391Z,2.60
2022-08-03T06:46:51.901Z,2.42
2022-08-03T06:49:41.132Z,2.78
2022-08-03T06:52:37.288Z,2.60
2022-08-03T06:55:25.407Z,2.38
2022-08-03T06:58:12.567Z,3.33
2022-08-03T07:00:59.938Z,4.00
2022-08-03T07:03:52.364Z,2.63
2022-08-03T07:06:40.145Z,2.40
2022-08-03T07:09:28.838Z,2.40
2022-08-03T07:12:16.245Z,2.40
2022-08-03T07:15:04.974Z,2.10
2022-08-03T07:17:55.412Z,2.45
2022-08-03T07:20:42.560Z,2.40
2022-08-03T07:23:29.862Z,2.25
2022-08-03T07:26:18.400Z,2.25
2022-08-03T07:29:11.736Z,2.28
2022-08-03T07:32:02.161Z,2.55
2022-08-03T07:34:49.307Z,2.13
2022-08-03T07:37:36.794Z,2.25
2022-08-03T07:40:30.600Z,2.10
2022-08-03T07:43:21.051Z,2.30
2022-08-03T07:46:08.425Z,2.08
2022-08-03T07:48:55.830Z,2.10
2022-08-03T07:51:43.040Z,2.00
2022-08-03T07:54:30.439Z,2.20
2022-08-03T07:57:17.537Z,2.17
2022-08-03T08:00:10.203Z,1.85
2022-08-03T08:03:00.591Z,1.90
2022-08-03T08:05:48.008Z,2.15
2022-08-03T08:08:35.745Z,1.73
2022-08-03T08:11:23.495Z,1.73
2022-08-03T08:14:10.516Z,1.63
2022-08-03T08:16:59.289Z,1.90
2022-08-03T08:19:51.761Z,1.85
2022-08-03T08:22:40.803Z,2.00
2022-08-03T08:25:29.030Z,1.90
2022-08-03T08:28:30.807Z,1.60
2022-08-03T08:31:20.895Z,1.80
2022-08-03T08:34:09.870Z,1.58
2022-08-03T08:36:57.041Z,1.65
2022-08-03T08:39:44.189Z,1.63
2022-08-03T08:42:32.956Z,1.20
2022-08-03T08:45:20.706Z,2.10
2022-08-03T08:48:09.529Z,1.40
2022-08-03T08:50:59.276Z,1.92
2022-08-03T08:53:51.458Z,2.25
2022-08-03T08:56:39.711Z,1.88
2022-08-03T08:59:27.929Z,1.70
2022-08-03T09:02:35.152Z,2.10
2022-08-03T09:05:35.775Z,1.90
2022-08-03T09:08:31.074Z,2.13
2022-08-03T09:11:51.387Z,1.95
2022-08-03T09:14:39.234Z,1.80
2022-08-03T09:17:26.575Z,2.22
2022-08-03T09:20:14.101Z,2.47
2022-08-03T09:23:19.041Z,2.30
2022-08-03T09:26:13.603Z,2.03
2022-08-03T09:29:09.317Z,1.83
2022-08-03T09:32:03.993Z,1.60
2022-08-03T09:34:58.052Z,2.22
2022-08-03T09:38:12.170Z,1.40
2022-08-03T09:40:58.858Z,1.55
2022-08-03T09:43:51.651Z,1.65
2022-08-03T09:46:59.522Z,1.55
2022-08-03T09:50:02.235Z,1.40
2022-08-03T09:52:52.719Z,1.60
2022-08-03T09:56:33.819Z,1.92
2022-08-03T09:58:50.704Z,1.70
2022-08-03T10:01:41.757Z,1.80
2022-08-03T10:04:31.002Z,1.90
2022-08-03T10:07:18.532Z,2.47
2022-08-03T10:10:30.467Z,2.50
2022-08-03T10:13:15.362Z,2.40
2022-08-03T10:16:23.605Z,2.60
2022-08-03T10:19:11.543Z,2.13
2022-08-03T10:22:04.910Z,2.40
2022-08-03T10:25:02.401Z,2.28
2022-08-03T10:27:53.183Z,2.40
2022-08-03T10:30:42.830Z,2.40
2022-08-03T10:33:51.983Z,2.70
2022-08-03T10:36:42.153Z,2.72
2022-08-03T10:39:31.870Z,2.25
2022-08-03T10:42:19.427Z,2.28
2022-08-03T10:45:20.052Z,2.65
2022-08-03T10:48:08.211Z,2.53
2022-08-03T10:50:57.085Z,2.30
2022-08-03T10:53:54.490Z,2.35
2022-08-03T10:57:01.115Z,3.08
2022-08-03T11:00:04.758Z,2.15
2022-08-03T11:03:11.002Z,1.98
2022-08-03T11:06:19.124Z,2.10
2022-08-03T11:09:20.263Z,2.90
2022-08-03T11:12:30.260Z,2.50
2022-08-03T11:15:34.897Z,2.50
2022-08-03T11:18:22.884Z,2.40
2022-08-03T11:21:15.924Z,2.53
2022-08-03T11:24:06.659Z,2.60
2022-08-03T11:27:19.001Z,2.30
2022-08-03T11:30:10.525Z,2.88
2022-08-03T11:33:02.063Z,2.63
2022-08-03T11:36:01.019Z,2.70
2022-08-03T11:39:17.058Z,2.30
2022-08-03T11:42:48.483Z,2.50
2022-08-03T11:45:36.102Z,2.50
2022-08-03T11:48:24.287Z,1.90
2022-08-03T11:51:23.503Z,2.70
2022-08-03T11:54:11.513Z,2.72
2022-08-03T11:57:00.080Z,2.50
2022-08-03T11:59:47.622Z,2.40
2022-08-03T12:02:34.776Z,2.38
2022-08-03T12:05:22.322Z,2.38
2022-08-03T12:08:10.905Z,2.70
2022-08-03T12:11:00.895Z,2.42
2022-08-03T12:14:35.820Z,2.10
2022-08-03T12:16:58.676Z,2.70
2022-08-03T12:19:46.555Z,2.92
2022-08-03T12:22:35.107Z,2.65
2022-08-03T12:25:38.898Z,2.35
2022-08-03T12:28:28.213Z,2.25
2022-08-03T12:31:25.764Z,2.33
2022-08-03T12:34:13.764Z,2.03
2022-08-03T12:37:01.037Z,2.38
2022-08-03T12:40:02.329Z,2.50
2022-08-03T12:42:51.558Z,1.90
2022-08-03T12:45:39.309Z,1.42
2022-08-03T12:48:27.991Z,1.40
2022-08-03T12:51:15.067Z,1.50
2022-08-03T12:54:03.674Z,2.30
2022-08-03T12:57:01.837Z,2.20
2022-08-03T12:59:52.553Z,2.30
2022-08-03T13:02:41.067Z,2.30
2022-08-03T13:05:44.777Z,2.13
2022-08-03T13:08:32.246Z,2.22
2022-08-03T13:11:21.462Z,1.70
2022-08-03T13:14:08.577Z,1.95
2022-08-03T13:17:00.848Z,2.70
2022-08-03T13:19:48.965Z,2.30
2022-08-03T13:22:38.025Z,2.63
2022-08-03T13:25:25.169Z,2.22
2022-08-03T13:28:14.592Z,1.95
2022-08-03T13:31:02.756Z,1.92
2022-08-03T13:33:50.787Z,1.50
2022-08-03T13:37:06.409Z,2.08
2022-08-03T13:39:58.131Z,1.70
2022-08-03T13:42:47.309Z,1.65
2022-08-03T13:45:34.485Z,1.80
2022-08-03T13:48:36.755Z,2.15
2022-08-03T13:51:24.695Z,1.70
2022-08-03T13:54:11.981Z,1.60
2022-08-03T13:58:04.730Z,1.77
2022-08-03T14:00:12.122Z,1.73
2022-08-03T14:03:16.425Z,1.60
2022-08-03T14:06:03.640Z,2.00
2022-08-03T14:08:51.949Z,2.25
2022-08-03T14:12:07.762Z,1.83
2022-08-03T14:14:47.908Z,1.70
2022-08-03T14:17:42.255Z,1.90
2022-08-03T14:20:50.315Z,1.77
2022-08-03T14:23:41.787Z,1.80
2022-08-03T14:26:30.445Z,1.70
2022-08-03T14:29:17.703Z,1.80
2022-08-03T14:32:11.212Z,2.10
2022-08-03T14:35:00.484Z,2.42
2022-08-03T14:37:47.957Z,2.50
2022-08-03T14:40:35.367Z,1.77
2022-08-03T14:43:22.760Z,1.60
2022-08-03T14:46:10.175Z,2.10
2022-08-03T14:50:33.509Z,1.92
2022-08-03T14:52:06.891Z,1.88
2022-08-03T14:54:54.379Z,1.55
2022-08-03T14:57:41.679Z,1.25
2022-08-03T15:00:29.114Z,1.50
2022-08-03T15:03:17.686Z,2.15
2022-08-03T15:06:06.475Z,1.88
2022-08-03T15:09:21.143Z,1.60
2022-08-03T15:12:04.786Z,1.60
2022-08-03T15:14:51.899Z,1.58
2022-08-03T15:17:39.415Z,1.20
2022-08-03T15:20:47.345Z,1.30
2022-08-03T15:23:36.138Z,1.50
2022-08-03T15:26:32.866Z,1.30
2022-08-03T15:30:05.854Z,1.17
2022-08-03T15:32:31.189Z,1.33
2022-08-03T15:35:18.230Z,1.30
2022-08-03T15:38:09.242Z,1.20
2022-08-03T15:40:59.177Z,1.17
2022-08-03T15:43:47.864Z,1.10
2022-08-03T15:46:35.371Z,1.20
2022-08-03T15:49:22.702Z,1.23
2022-08-03T15:52:10.151Z,1.75
2022-08-03T15:54:57.796Z,1.30
2022-08-03T15:59:10.241Z,1.25
2022-08-03T16:00:53.273Z,1.10
2022-08-03T16:03:40.345Z,1.83
2022-08-03T16:06:29.819Z,1.58
2022-08-03T16:09:43.462Z,1.70
2022-08-03T16:12:30.384Z,1.83
2022-08-03T16:15:19.134Z,1.67
2022-08-03T16:18:06.998Z,1.60
2022-08-03T16:20:54.420Z,1.50
2022-08-03T16:23:43.166Z,1.65
2022-08-03T16:26:34.898Z,1.40
2022-08-03T16:29:23.788Z,1.20
2022-08-03T16:32:12.992Z,1.70
2022-08-03T16:35:00.164Z,1.70
2022-08-03T16:37:54.629Z,1.90
2022-08-03T16:40:43.921Z,1.80
2022-08-03T16:43:34.750Z,2.10
2022-08-03T16:46:22.610Z,1.73
2022-08-03T16:49:11.234Z,1.77
2022-08-03T16:52:18.278Z,1.90
2022-08-03T16:55:07.935Z,2.00
2022-08-03T16:57:58.354Z,1.60
2022-08-03T17:00:47.306Z,1.88
2022-08-03T17:03:57.241Z,1.90
2022-08-03T17:06:49.698Z,1.60
2022-08-03T17:09:38.865Z,1.40
2022-08-03T17:12:27.095Z,1.50
2022-08-03T17:15:14.676Z,1.50
2022-08-03T17:18:06.655Z,1.85
2022-08-03T17:20:57.482Z,1.70
2022-08-03T17:23:56.643Z,1.48
2022-08-03T17:26:49.914Z,1.38
2022-08-03T17:29:45.168Z,1.35
2022-08-03T17:32:36.834Z,1.50
2022-08-03T17:35:36.736Z,1.40
2022-08-03T17:38:26.559Z,1.60
2022-08-03T17:41:21.728Z,1.48
2022-08-03T17:44:15.156Z,1.73
2022-08-03T17:47:06.630Z,1.73
2022-08-03T17:49:54.315Z,1.80
2022-08-03T17:52:48.250Z,1.35
2022-08-03T17:55:55.940Z,1.50
2022-08-03T17:58:58.416Z,1.30
2022-08-03T18:02:21.096Z,2.40
2022-08-03T18:05:22.146Z,1.65
2022-08-03T18:08:11.692Z,1.75
2022-08-03T18:14:19.618Z,1.67
2022-08-03T18:17:15.683Z,1.63
2022-08-03T18:20:34.049Z,1.60
2022-08-03T18:23:20.489Z,1.80
2022-08-03T18:26:25.431Z,1.90
2022-08-03T18:29:15.945Z,1.70
2022-08-03T18:32:08.757Z,1.83
2022-08-03T18:35:02.106Z,1.58
2022-08-03T18:37:51.959Z,1.77
2022-08-03T18:40:48.837Z,2.20
2022-08-03T18:43:47.653Z,2.30
2022-08-03T18:46:55.679Z,1.98
2022-08-03T18:49:51.657Z,2.22
2022-08-03T18:52:45.795Z,2.00
2022-08-03T18:55:37.088Z,1.85
2022-08-03T18:58:35.580Z,2.03
2022-08-03T19:01:57.996Z,2.22
2022-08-03T19:04:49.548Z,2.33
2022-08-03T19:07:40.423Z,2.28
2022-08-03T19:10:34.230Z,2.38
2022-08-03T19:13:31.060Z,2.22
2022-08-03T19:16:34.313Z,2.40
2022-08-03T19:19:24.682Z,2.35
2022-08-03T19:22:15.907Z,2.20
2022-08-03T19:25:04.153Z,2.20
2022-08-03T19:27:51.917Z,2.13
2022-08-03T19:30:53.486Z,1.90
2022-08-03T19:33:55.830Z,2.20
2022-08-03T19:36:44.446Z,2.30
2022-08-03T19:39:33.626Z,2.72
2022-08-03T19:42:28.745Z,2.47
2022-08-03T19:45:24.434Z,2.50
2022-08-03T19:48:34.841Z,2.38
2022-08-03T19:51:58.519Z,2.38
2022-08-03T19:54:45.602Z,2.63
2022-08-03T19:57:39.155Z,2.70
2022-08-03T20:00:30.637Z,2.63
2022-08-03T20:03:28.023Z,2.42
2022-08-03T20:06:30.440Z,2.28
2022-08-03T20:09:19.509Z,2.30
2022-08-03T20:12:17.777Z,2.30
2022-08-03T20:15:14.526Z,2.53
2022-08-03T20:18:16.854Z,2.30
2022-08-03T20:21:14.925Z,2.38
2022-08-03T20:24:23.453Z,2.63
2022-08-03T20:27:19.588Z,2.20
2022-08-03T20:30:08.769Z,2.20
2022-08-03T20:32:56.183Z,2.13
2022-08-03T20:35:45.898Z,2.25
2022-08-03T20:41:43.425Z,2.22
2022-08-03T20:44:32.816Z,2.28
2022-08-03T20:47:23.737Z,2.58
2022-08-03T20:50:12.578Z,2.83
2022-08-03T20:53:02.625Z,2.55
2022-08-03T20:56:02.333Z,2.53
2022-08-03T20:58:51.067Z,2.45
2022-08-03T21:01:39.831Z,2.25
2022-08-03T21:04:43.171Z,2.70
2022-08-03T21:08:03.822Z,5.00
2022-08-03T21:10:47.212Z,2.75
2022-08-03T21:12:57.105Z,1.67
2022-08-03T21:13:14.115Z,2.35
2022-08-03T21:13:44.423Z,3.00
2022-08-03T21:16:34.763Z,2.75
2022-08-03T21:19:24.994Z,3.22
2022-08-03T21:22:15.796Z,2.85
2022-08-03T21:25:07.338Z,3.08
2022-08-03T21:27:54.765Z,2.90
2022-08-03T21:30:42.410Z,3.05
2022-08-03T21:33:30.817Z,2.90
2022-08-03T21:36:19.318Z,3.45
2022-08-03T21:39:09.670Z,3.28
2022-08-03T21:41:56.865Z,3.00
2022-08-03T21:44:44.227Z,3.10
2022-08-03T21:47:32.118Z,2.78
2022-08-03T21:50:19.227Z,3.15
2022-08-03T21:53:10.181Z,3.05
2022-08-03T21:56:02.017Z,3.10
2022-08-03T21:58:55.540Z,3.13
2022-08-03T22:01:45.512Z,2.88
2022-08-03T22:04:42.665Z,3.47
2022-08-03T22:07:39.291Z,2.90
2022-08-03T22:10:28.814Z,2.78
2022-08-03T22:13:43.970Z,2.78
2022-08-03T22:16:26.246Z,3.03
2022-08-03T22:19:13.649Z,3.00
2022-08-03T22:22:04.474Z,3.30
2022-08-03T22:24:59.309Z,2.85
2022-08-03T22:27:48.282Z,3.10
2022-08-03T22:30:36.047Z,3.00
2022-08-03T22:33:25.878Z,3.28
2022-08-03T22:36:13.961Z,3.33
2022-08-03T22:39:02.257Z,3.05
2022-08-03T22:41:49.738Z,3.28
2022-08-03T22:44:38.901Z,3.03
2022-08-03T22:47:26.081Z,3.03
2022-08-03T22:50:31.451Z,2.75
2022-08-03T22:53:23.201Z,3.17
2022-08-03T22:56:10.398Z,3.25
2022-08-03T22:58:57.774Z,3.47
2022-08-03T23:01:48.581Z,3.08
2022-08-03T23:04:39.525Z,3.03
2022-08-03T23:07:33.118Z,3.45
2022-08-03T23:10:20.598Z,2.85
2022-08-03T23:13:09.024Z,3.33
2022-08-03T23:15:59.207Z,3.03
2022-08-03T23:18:52.286Z,3.45
2022-08-03T23:21:53.213Z,3.10
2022-08-03T23:24:47.273Z,3.40
2022-08-03T23:27:35.526Z,3.50
2022-08-03T23:30:22.821Z,3.50
2022-08-03T23:33:19.512Z,3.35
2022-08-03T23:36:30.237Z,3.28
2022-08-03T23:39:18.875Z,3.60
2022-08-03T23:42:06.967Z,3.53
2022-08-03T23:44:56.812Z,3.40
2022-08-03T23:47:47.652Z,3.30
2022-08-03T23:50:50.176Z,3.58
2022-08-03T23:53:46.217Z,3.50
2022-08-03T23:56:45.880Z,3.50
2022-08-03T23:59:43.764Z,3.30
